createdAt,value
2019-06-20T00:00:38.150Z,4.25
2019-06-20T00:03:06.747Z,3.87
2019-06-20T00:05:38.288Z,4.17
2019-06-20T00:08:06.727Z,3.73
2019-06-20T00:10:35.178Z,4.03
2019-06-20T00:13:04.000Z,3.90
2019-06-20T00:15:32.444Z,4.17
2019-06-20T00:18:00.858Z,4.10
2019-06-20T00:20:29.331Z,3.60
2019-06-20T00:22:57.797Z,4.90
2019-06-20T00:25:26.304Z,4.07
2019-06-20T00:27:54.798Z,4.27
2019-06-20T00:30:23.198Z,3.83
2019-06-20T00:32:51.629Z,3.50
2019-06-20T00:35:20.049Z,4.00
2019-06-20T00:37:48.503Z,4.50
2019-06-20T00:40:17.281Z,4.10
2019-06-20T00:42:45.715Z,4.20
2019-06-20T00:45:14.485Z,4.80
2019-06-20T00:47:42.934Z,4.50
2019-06-20T00:50:11.827Z,4.30
2019-06-20T00:52:40.233Z,5.10
2019-06-20T00:55:08.811Z,5.17
2019-06-20T00:57:37.319Z,5.70
2019-06-20T01:00:08.066Z,5.43
2019-06-20T01:02:36.512Z,5.80
2019-06-20T01:05:08.808Z,5.37
2019-06-20T01:07:37.251Z,5.90
2019-06-20T01:10:09.151Z,5.70
2019-06-20T01:12:37.564Z,5.93
2019-06-20T01:15:07.940Z,6.47
2019-06-20T01:17:36.552Z,6.83
2019-06-20T01:20:07.171Z,7.60
2019-06-20T01:22:35.625Z,6.17
2019-06-20T01:25:06.096Z,7.30
2019-06-20T01:27:34.774Z,8.03
2019-06-20T01:30:03.662Z,8.00
2019-06-20T01:32:32.098Z,7.00
2019-06-20T01:35:00.507Z,7.80
2019-06-20T01:37:28.966Z,7.37
2019-06-20T01:39:57.425Z,7.43
2019-06-20T01:42:25.871Z,8.40
2019-06-20T01:44:54.289Z,7.83
2019-06-20T01:47:22.869Z,7.90
2019-06-20T01:49:51.320Z,8.70
2019-06-20T01:52:19.764Z,9.73
2019-06-20T01:54:48.213Z,9.57
2019-06-20T01:57:16.656Z,8.20
2019-06-20T01:59:45.079Z,10.17
2019-06-20T02:02:13.529Z,9.70
2019-06-20T02:04:41.987Z,9.70
2019-06-20T02:07:10.422Z,9.30
2019-06-20T02:09:38.906Z,10.93
2019-06-20T02:12:07.388Z,9.77
2019-06-20T02:14:35.844Z,9.30
2019-06-20T02:17:04.387Z,9.83
2019-06-20T02:19:32.836Z,8.93
2019-06-20T02:22:01.373Z,10.90
2019-06-20T02:24:32.833Z,9.00
2019-06-20T02:27:01.528Z,9.27
2019-06-20T02:29:30.068Z,9.70
2019-06-20T02:31:58.540Z,9.40
2019-06-20T02:34:26.986Z,9.80
2019-06-20T02:36:55.424Z,10.00
2019-06-20T02:39:26.003Z,9.93
2019-06-20T02:41:54.441Z,9.30
2019-06-20T02:44:29.941Z,8.53
2019-06-20T02:46:53.059Z,8.10
2019-06-20T02:49:21.521Z,8.43
2019-06-20T02:51:50.497Z,9.87
2019-06-20T02:54:19.092Z,8.50
2019-06-20T02:56:47.510Z,10.07
2019-06-20T02:59:15.988Z,9.03
2019-06-20T03:01:44.449Z,9.20
2019-06-20T03:04:12.878Z,9.30
2019-06-20T03:06:41.495Z,9.83
2019-06-20T03:09:09.943Z,9.30
2019-06-20T03:11:38.377Z,9.73
2019-06-20T03:14:09.852Z,8.93
2019-06-20T03:16:38.306Z,11.60
2019-06-20T03:19:06.783Z,7.60
2019-06-20T03:21:35.181Z,7.90
2019-06-20T03:24:03.640Z,8.70
2019-06-20T03:26:32.085Z,8.33
2019-06-20T03:29:00.558Z,9.20
2019-06-20T03:31:29.013Z,8.30
2019-06-20T03:33:57.500Z,8.33
2019-06-20T03:36:25.919Z,8.17
2019-06-20T03:38:54.378Z,8.53
2019-06-20T03:41:22.912Z,7.97
2019-06-20T03:43:53.911Z,7.30
2019-06-20T03:46:22.326Z,7.53
2019-06-20T03:48:50.764Z,7.30
2019-06-20T03:51:19.176Z,7.03
2019-06-20T03:53:47.606Z,7.83
2019-06-20T03:56:17.699Z,7.50
2019-06-20T03:58:46.142Z,7.57
2019-06-20T04:01:14.590Z,7.60
2019-06-20T04:03:43.002Z,6.90
2019-06-20T04:06:11.516Z,7.37
2019-06-20T04:08:40.042Z,7.67
2019-06-20T04:11:09.984Z,6.53
2019-06-20T04:13:38.421Z,6.70
2019-06-20T04:16:08.501Z,6.37
2019-06-20T04:18:37.135Z,7.40
2019-06-20T04:21:05.668Z,7.33
2019-06-20T04:23:34.102Z,7.47
2019-06-20T04:26:02.561Z,6.80
2019-06-20T04:28:31.017Z,6.90
2019-06-20T04:31:01.280Z,6.20
2019-06-20T04:33:29.702Z,7.23
2019-06-20T04:35:58.146Z,6.47
2019-06-20T04:38:26.568Z,6.90
2019-06-20T04:40:55.030Z,7.00
2019-06-20T04:43:23.534Z,7.47
2019-06-20T04:45:56.384Z,6.97
2019-06-20T04:48:27.534Z,8.80
2019-06-20T04:50:55.952Z,8.23
2019-06-20T04:53:24.504Z,8.03
2019-06-20T04:55:52.943Z,7.10
2019-06-20T05:01:12.724Z,7.60
2019-06-20T05:03:41.174Z,7.70
2019-06-20T05:06:09.614Z,8.50
2019-06-20T05:08:40.000Z,8.57
2019-06-20T05:11:08.396Z,8.77
2019-06-20T05:13:36.886Z,8.20
2019-06-20T05:16:05.374Z,9.40
2019-06-20T05:18:33.823Z,10.60
2019-06-20T05:21:02.244Z,9.17
2019-06-20T05:23:30.678Z,10.10
2019-06-20T05:25:59.196Z,9.60
2019-06-20T05:28:27.657Z,9.13
2019-06-20T05:30:56.357Z,10.97
2019-06-20T05:33:28.803Z,12.40
2019-06-20T05:35:57.273Z,13.50
2019-06-20T05:38:25.699Z,14.07
2019-06-20T05:40:54.182Z,14.63
2019-06-20T05:43:22.573Z,14.93
2019-06-20T05:45:51.050Z,15.13
2019-06-20T05:48:19.488Z,14.90
2019-06-20T05:50:48.635Z,15.60
2019-06-20T05:53:17.135Z,16.07
2019-06-20T05:55:45.624Z,16.40
2019-06-20T05:58:14.036Z,16.60
2019-06-20T06:00:42.521Z,17.37
2019-06-20T06:03:13.661Z,17.87
2019-06-20T06:05:41.210Z,18.90
2019-06-20T06:08:09.685Z,20.63
2019-06-20T06:10:38.086Z,18.90
2019-06-20T06:13:06.518Z,23.63
2019-06-20T06:15:35.015Z,25.57
2019-06-20T06:18:03.446Z,26.13
2019-06-20T06:20:31.893Z,26.83
2019-06-20T06:23:00.478Z,26.53
2019-06-20T06:25:29.073Z,28.23
2019-06-20T06:28:00.334Z,30.10
2019-06-20T06:30:30.313Z,28.53
2019-06-20T06:33:01.644Z,28.80
2019-06-20T06:35:30.465Z,27.60
2019-06-20T06:38:01.720Z,26.70
2019-06-20T06:40:30.647Z,25.10
2019-06-20T06:42:59.152Z,25.80
2019-06-20T06:45:29.186Z,23.37
2019-06-20T06:47:58.669Z,24.60
2019-06-20T06:50:30.432Z,26.90
2019-06-20T06:52:58.931Z,27.20
2019-06-20T06:55:27.920Z,27.43
2019-06-20T06:57:59.303Z,31.90
2019-06-20T07:00:29.177Z,30.00
2019-06-20T07:02:57.611Z,31.57
2019-06-20T07:05:27.483Z,28.53
2019-06-20T07:07:59.620Z,30.40
2019-06-20T07:10:28.339Z,29.40
2019-06-20T07:12:56.819Z,30.77
2019-06-20T07:15:26.996Z,31.40
2019-06-20T07:17:55.576Z,31.37
2019-06-20T07:20:28.661Z,31.00
2019-06-20T07:22:58.702Z,29.40
2019-06-20T07:25:41.344Z,29.80
2019-06-20T07:28:13.128Z,31.00
2019-06-20T07:30:41.957Z,31.97
2019-06-20T07:33:17.950Z,32.27
2019-06-20T07:35:46.626Z,31.43
2019-06-20T07:38:22.943Z,32.90
2019-06-20T07:40:56.483Z,31.90
2019-06-20T07:43:31.465Z,31.10
2019-06-20T07:46:03.031Z,31.90
2019-06-20T07:48:32.232Z,30.73
2019-06-20T07:51:01.003Z,31.97
2019-06-20T07:53:34.011Z,31.33
2019-06-20T07:56:02.609Z,32.10
2019-06-20T07:58:32.773Z,30.97
2019-06-20T08:01:12.896Z,29.73
2019-06-20T08:03:36.953Z,29.87
2019-06-20T08:06:05.438Z,31.03
2019-06-20T08:08:35.670Z,28.50
2019-06-20T08:11:04.384Z,30.03
2019-06-20T08:13:32.993Z,29.27
2019-06-20T08:16:03.791Z,27.80
2019-06-20T08:18:31.698Z,29.60
2019-06-20T08:21:00.128Z,28.73
2019-06-20T08:23:28.561Z,27.77
2019-06-20T08:25:57.526Z,27.40
2019-06-20T08:28:27.824Z,26.60
2019-06-20T08:30:57.374Z,25.27
2019-06-20T08:33:26.823Z,23.97
2019-06-20T08:35:56.966Z,25.87
2019-06-20T08:38:25.474Z,22.57
2019-06-20T08:40:54.003Z,21.73
2019-06-20T08:43:22.423Z,19.37
2019-06-20T08:45:50.857Z,16.80
2019-06-20T08:48:19.326Z,17.50
2019-06-20T08:50:47.738Z,15.70
2019-06-20T08:53:16.318Z,15.40
2019-06-20T08:55:44.796Z,15.23
2019-06-20T08:58:13.236Z,16.13
2019-06-20T09:00:41.899Z,16.63
2019-06-20T09:03:10.645Z,15.67
2019-06-20T09:05:39.066Z,17.30
2019-06-20T09:08:11.215Z,17.43
2019-06-20T09:10:40.187Z,16.60
2019-06-20T09:13:09.882Z,16.40
2019-06-20T09:15:38.532Z,16.90
2019-06-20T09:18:07.780Z,14.50
2019-06-20T09:20:36.722Z,16.57
2019-06-20T09:23:05.750Z,16.50
2019-06-20T09:25:34.399Z,16.03
2019-06-20T09:28:03.226Z,14.67
2019-06-20T09:30:31.882Z,15.15
2019-06-20T09:33:00.293Z,16.53
2019-06-20T09:35:28.719Z,15.30
2019-06-20T09:37:57.423Z,16.67
2019-06-20T09:40:26.022Z,14.73
2019-06-20T09:42:54.553Z,14.90
2019-06-20T09:45:23.548Z,15.67
2019-06-20T09:47:52.236Z,14.43
2019-06-20T09:50:21.329Z,15.60
2019-06-20T09:52:51.387Z,16.80
2019-06-20T09:55:20.163Z,17.00
2019-06-20T09:57:50.257Z,16.87
2019-06-20T10:00:21.838Z,15.00
2019-06-20T10:02:51.793Z,14.47
2019-06-20T10:05:20.681Z,15.47
2019-06-20T10:07:50.273Z,14.30
2019-06-20T10:10:19.223Z,16.13
2019-06-20T10:12:47.959Z,13.60
2019-06-20T10:15:25.459Z,11.90
2019-06-20T10:17:54.509Z,12.80
2019-06-20T10:20:23.838Z,14.33
2019-06-20T10:22:53.124Z,13.40
2019-06-20T10:25:21.848Z,13.50
2019-06-20T10:27:51.397Z,13.57
2019-06-20T10:30:22.131Z,14.00
2019-06-20T10:32:51.097Z,12.70
2019-06-20T10:35:20.048Z,12.03
2019-06-20T10:37:48.628Z,12.93
2019-06-20T10:40:18.693Z,11.70
2019-06-20T10:42:48.089Z,11.80
2019-06-20T10:45:19.271Z,11.10
2019-06-20T10:47:48.979Z,13.03
2019-06-20T10:50:19.323Z,11.60
2019-06-20T10:52:48.169Z,11.93
2019-06-20T10:55:17.511Z,13.30
2019-06-20T10:57:46.773Z,11.47
2019-06-20T11:00:29.707Z,11.60
2019-06-20T11:02:47.061Z,12.93
2019-06-20T11:05:17.253Z,11.43
2019-06-20T11:07:45.762Z,12.60
2019-06-20T11:10:16.284Z,12.50
2019-06-20T11:12:52.239Z,11.90
2019-06-20T11:15:15.693Z,12.17
2019-06-20T11:17:44.314Z,10.90
2019-06-20T11:20:13.282Z,13.43
2019-06-20T11:22:43.342Z,12.70
2019-06-20T11:25:18.974Z,12.07
2019-06-20T11:27:47.317Z,11.37
2019-06-20T11:30:24.350Z,12.80
2019-06-20T11:32:52.780Z,11.70
2019-06-20T11:35:21.207Z,11.97
2019-06-20T11:37:49.637Z,11.50
2019-06-20T11:40:18.548Z,9.97
2019-06-20T11:42:47.067Z,12.80
2019-06-20T11:45:17.480Z,11.50
2019-06-20T11:47:47.321Z,10.60
2019-06-20T11:50:16.932Z,10.47
2019-06-20T11:52:45.993Z,9.77
2019-06-20T11:55:15.729Z,9.50
2019-06-20T11:57:44.327Z,11.00
2019-06-20T12:00:13.676Z,10.37
2019-06-20T12:02:43.956Z,10.00
2019-06-20T12:05:13.805Z,10.43
2019-06-20T12:07:43.701Z,11.40
2019-06-20T12:10:14.339Z,11.20
2019-06-20T12:12:42.783Z,10.63
2019-06-20T12:15:11.946Z,11.13
2019-06-20T12:17:41.721Z,10.70
2019-06-20T12:20:12.610Z,11.10
2019-06-20T12:22:41.729Z,8.80
2019-06-20T12:25:13.132Z,10.93
2019-06-20T12:27:42.962Z,10.30
2019-06-20T12:30:14.033Z,10.50
2019-06-20T12:32:42.594Z,8.80
2019-06-20T12:35:11.741Z,9.33
2019-06-20T12:37:40.580Z,8.50
2019-06-20T12:40:11.616Z,10.50
2019-06-20T12:42:41.803Z,7.73
2019-06-20T12:45:11.888Z,7.30
2019-06-20T12:47:41.790Z,10.10
2019-06-20T12:50:10.772Z,9.80
2019-06-20T12:52:42.628Z,8.83
2019-06-20T12:55:12.219Z,8.10
2019-06-20T12:57:42.136Z,9.50
2019-06-20T13:00:12.370Z,9.00
2019-06-20T13:02:41.949Z,8.33
2019-06-20T13:05:11.650Z,7.83
2019-06-20T13:07:40.699Z,7.73
2019-06-20T13:10:11.174Z,8.03
2019-06-20T13:12:42.696Z,7.90
2019-06-20T13:15:13.151Z,6.70
2019-06-20T13:17:43.619Z,7.07
2019-06-20T13:20:16.050Z,7.20
2019-06-20T13:22:49.347Z,7.70
2019-06-20T13:25:17.437Z,7.50
2019-06-20T13:27:45.997Z,7.90
2019-06-20T13:30:14.914Z,8.03
2019-06-20T13:32:45.229Z,8.47
2019-06-20T13:35:14.386Z,8.27
2019-06-20T13:37:43.483Z,8.10
2019-06-20T13:40:13.547Z,8.33
2019-06-20T13:42:43.947Z,6.10
2019-06-20T13:45:15.274Z,6.93
2019-06-20T13:47:43.724Z,8.60
2019-06-20T13:50:12.297Z,7.67
2019-06-20T13:52:43.544Z,7.93
2019-06-20T13:55:10.938Z,7.53
2019-06-20T13:57:41.218Z,7.57
2019-06-20T14:00:10.893Z,7.73
2019-06-20T14:02:41.041Z,8.37
2019-06-20T14:05:10.348Z,8.00
2019-06-20T14:07:48.316Z,7.87
2019-06-20T14:10:19.438Z,7.40
2019-06-20T14:12:48.772Z,9.00
2019-06-20T14:15:18.715Z,8.80
2019-06-20T14:17:47.487Z,8.70
2019-06-20T14:20:18.545Z,8.63
2019-06-20T14:22:46.947Z,8.17
2019-06-20T14:25:15.780Z,9.50
2019-06-20T14:27:46.041Z,9.13
2019-06-20T14:30:16.705Z,8.73
2019-06-20T14:32:47.487Z,10.13
2019-06-20T14:35:16.081Z,8.87
2019-06-20T14:37:46.100Z,9.47
2019-06-20T14:40:15.900Z,9.90
2019-06-20T14:42:46.004Z,11.07
2019-06-20T14:45:15.188Z,9.27
2019-06-20T14:47:43.845Z,8.47
2019-06-20T14:50:20.346Z,7.30
2019-06-20T14:52:50.032Z,7.63
2019-06-20T14:55:19.278Z,8.53
2019-06-20T14:57:48.520Z,8.23
2019-06-20T15:00:18.616Z,7.27
2019-06-20T15:02:48.019Z,9.00
2019-06-20T15:05:24.524Z,9.60
2019-06-20T15:07:57.358Z,7.83
2019-06-20T15:10:25.736Z,6.03
2019-06-20T15:13:04.482Z,6.97
2019-06-20T15:15:32.885Z,5.77
2019-06-20T15:18:01.312Z,5.40
2019-06-20T15:20:29.736Z,7.80
2019-06-20T15:22:58.154Z,6.67
2019-06-20T15:25:26.694Z,8.70
2019-06-20T15:27:55.793Z,9.97
2019-06-20T15:30:25.547Z,10.33
2019-06-20T15:33:05.798Z,10.17
2019-06-20T15:35:31.162Z,10.00
2019-06-20T15:37:59.641Z,9.70
2019-06-20T15:40:36.892Z,12.00
2019-06-20T15:43:05.341Z,13.00
2019-06-20T15:45:33.759Z,10.73
2019-06-20T15:48:02.220Z,11.87
2019-06-20T15:50:30.635Z,10.23
2019-06-20T15:52:59.062Z,8.00
2019-06-20T15:55:27.475Z,8.23
2019-06-20T15:57:56.073Z,8.20
2019-06-20T16:00:25.561Z,6.80
2019-06-20T16:03:05.928Z,6.73
2019-06-20T16:05:24.109Z,7.50
2019-06-20T16:07:52.558Z,9.30
2019-06-20T16:10:29.673Z,10.70
2019-06-20T16:13:10.086Z,10.67
2019-06-20T16:15:38.496Z,10.93
2019-06-20T16:18:10.012Z,11.97
2019-06-20T16:20:38.446Z,9.70
2019-06-20T16:23:06.891Z,10.20
2019-06-20T16:25:35.325Z,10.90
2019-06-20T16:28:03.787Z,8.80
2019-06-20T16:30:33.911Z,6.87
2019-06-20T16:33:02.444Z,9.37
2019-06-20T16:35:30.878Z,9.53
2019-06-20T16:38:00.860Z,8.57
2019-06-20T16:40:32.309Z,9.47
2019-06-20T16:43:00.741Z,9.03
2019-06-20T16:45:31.295Z,8.97
2019-06-20T16:48:01.316Z,10.20
2019-06-20T16:50:34.940Z,8.97
2019-06-20T16:53:03.248Z,10.33
2019-06-20T16:55:33.613Z,10.43
2019-06-20T16:58:05.596Z,10.17
2019-06-20T17:00:40.073Z,10.70
2019-06-20T17:03:08.653Z,10.20
2019-06-20T17:05:38.637Z,9.70
2019-06-20T17:08:07.112Z,10.77
2019-06-20T17:10:39.440Z,10.50
2019-06-20T17:13:14.021Z,11.40
2019-06-20T17:15:42.449Z,10.57
2019-06-20T17:18:10.856Z,6.50
2019-06-20T17:20:39.347Z,6.70
2019-06-20T17:23:11.888Z,8.90
2019-06-20T17:25:40.327Z,7.50
2019-06-20T17:28:14.528Z,7.60
2019-06-20T17:30:42.998Z,7.20
2019-06-20T17:33:11.446Z,7.10
2019-06-20T17:35:39.867Z,7.80
2019-06-20T17:38:08.335Z,7.03
2019-06-20T17:40:36.922Z,7.67
2019-06-20T17:43:05.373Z,6.70
2019-06-20T17:45:42.461Z,6.83
2019-06-20T17:48:16.883Z,6.70
2019-06-20T17:50:45.303Z,7.67
2019-06-20T17:53:13.736Z,7.07
2019-06-20T17:55:42.582Z,6.93
2019-06-20T17:58:19.417Z,6.67
2019-06-20T18:00:45.186Z,8.40
2019-06-20T18:03:13.659Z,7.23
2019-06-20T18:05:42.442Z,7.07
2019-06-20T18:08:15.057Z,8.83
2019-06-20T18:10:41.017Z,7.90
2019-06-20T18:13:09.450Z,8.87
2019-06-20T18:15:37.872Z,7.27
2019-06-20T18:18:06.334Z,7.93
2019-06-20T18:20:34.732Z,8.77
2019-06-20T18:23:03.209Z,8.33
2019-06-20T18:25:31.900Z,8.90
2019-06-20T18:28:01.271Z,9.80
2019-06-20T18:30:41.359Z,9.33
2019-06-20T18:33:11.493Z,9.70
2019-06-20T18:35:39.876Z,9.73
2019-06-20T18:38:08.298Z,9.57
2019-06-20T18:40:36.943Z,11.20
2019-06-20T18:43:05.474Z,10.90
2019-06-20T18:45:33.963Z,12.50
2019-06-20T18:48:05.504Z,10.70
2019-06-20T18:50:34.185Z,9.63
2019-06-20T18:53:02.664Z,10.20
2019-06-20T18:55:31.130Z,9.00
2019-06-20T18:57:59.628Z,8.63
2019-06-20T19:00:34.648Z,8.50
2019-06-20T19:02:58.997Z,8.33
2019-06-20T19:05:31.884Z,9.10
2019-06-20T19:08:00.293Z,8.27
2019-06-20T19:10:29.043Z,10.50
2019-06-20T19:12:57.620Z,9.13
2019-06-20T19:15:29.351Z,9.43
2019-06-20T19:17:57.904Z,11.13
2019-06-20T19:20:29.826Z,9.73
2019-06-20T19:22:58.645Z,9.80
2019-06-20T19:25:27.147Z,9.97
2019-06-20T19:27:55.669Z,9.57
2019-06-20T19:30:41.922Z,10.07
2019-06-20T19:33:11.301Z,9.50
2019-06-20T19:35:39.907Z,10.40
2019-06-20T19:38:08.330Z,10.33
2019-06-20T19:40:40.097Z,10.13
2019-06-20T19:43:08.578Z,10.80
2019-06-20T19:45:37.381Z,11.53
2019-06-20T19:48:06.180Z,11.20
2019-06-20T19:50:34.686Z,11.00
2019-06-20T19:53:03.222Z,10.90
2019-06-20T19:55:31.943Z,9.90
2019-06-20T19:58:00.361Z,7.90
2019-06-20T20:00:29.067Z,8.00
2019-06-20T20:02:57.824Z,8.07
2019-06-20T20:05:26.321Z,9.63
2019-06-20T20:07:58.469Z,12.67
2019-06-20T20:10:47.954Z,11.50
2019-06-20T20:13:17.518Z,12.33
2019-06-20T20:15:46.578Z,11.93
2019-06-20T20:18:16.036Z,12.00
2019-06-20T20:20:47.534Z,11.93
2019-06-20T20:23:16.195Z,11.93
2019-06-20T20:25:44.802Z,11.73
2019-06-20T20:28:13.268Z,12.57
2019-06-20T20:30:41.857Z,11.37
2019-06-20T20:33:10.358Z,11.40
2019-06-20T20:35:41.035Z,11.40
2019-06-20T20:38:09.533Z,11.23
2019-06-20T20:40:37.956Z,9.43
2019-06-20T20:43:06.715Z,8.20
2019-06-20T20:45:35.234Z,8.40
2019-06-20T20:48:03.669Z,7.40
2019-06-20T20:50:40.822Z,7.13
2019-06-20T20:53:09.225Z,7.47
2019-06-20T20:55:37.644Z,7.37
2019-06-20T20:58:06.061Z,8.90
2019-06-20T21:00:40.641Z,9.17
2019-06-20T21:03:09.153Z,9.27
2019-06-20T21:05:50.705Z,9.47
2019-06-20T21:08:07.779Z,10.77
2019-06-20T21:10:36.223Z,9.40
2019-06-20T21:13:04.702Z,9.53
2019-06-20T21:15:33.113Z,9.03
2019-06-20T21:18:01.532Z,9.70
2019-06-20T21:20:29.978Z,9.27
2019-06-20T21:22:58.413Z,10.40
2019-06-20T21:25:26.903Z,10.43
2019-06-20T21:27:55.297Z,9.67
2019-06-20T21:30:24.081Z,8.90
2019-06-20T21:32:52.508Z,9.30
2019-06-20T21:35:20.943Z,10.13
2019-06-20T21:37:49.366Z,10.07
2019-06-20T21:40:18.753Z,11.60
2019-06-20T21:42:47.179Z,11.80
2019-06-20T21:45:16.773Z,12.43
2019-06-20T21:47:45.224Z,12.50
2019-06-20T21:50:14.993Z,11.77
2019-06-20T21:52:43.403Z,11.50
2019-06-20T21:55:12.179Z,12.50
2019-06-20T21:57:40.598Z,12.30
2019-06-20T22:00:25.342Z,12.00
2019-06-20T22:02:53.929Z,14.10
2019-06-20T22:05:22.533Z,14.83
2019-06-20T22:07:51.037Z,16.00
2019-06-20T22:10:19.782Z,15.17
2019-06-20T22:12:48.204Z,13.67
2019-06-20T22:15:16.791Z,16.53
2019-06-20T22:17:45.230Z,17.20
2019-06-20T22:20:15.180Z,17.57
2019-06-20T22:22:43.646Z,18.07
2019-06-20T22:25:12.605Z,18.63
2019-06-20T22:27:41.097Z,18.63
2019-06-20T22:30:13.714Z,18.23
2019-06-20T22:32:42.177Z,19.30
2019-06-20T22:35:11.729Z,19.20
2019-06-20T22:37:41.607Z,19.47
2019-06-20T22:40:12.571Z,19.10
2019-06-20T22:42:41.009Z,19.90
2019-06-20T22:45:10.956Z,19.07
2019-06-20T22:47:39.378Z,19.70
2019-06-20T22:50:08.932Z,20.23
2019-06-20T22:52:38.308Z,19.90
2019-06-20T22:55:06.947Z,20.93
2019-06-20T22:57:35.388Z,20.43
2019-06-20T23:00:07.188Z,20.73
2019-06-20T23:02:35.637Z,24.40
2019-06-20T23:05:05.521Z,23.93
2019-06-20T23:07:33.973Z,23.60
2019-06-20T23:10:25.026Z,25.03
2019-06-20T23:12:55.173Z,24.33
2019-06-20T23:15:23.769Z,24.17
2019-06-20T23:17:52.285Z,24.43
2019-06-20T23:20:20.964Z,24.67
2019-06-20T23:22:49.374Z,25.93
2019-06-20T23:25:18.155Z,25.97
2019-06-20T23:27:46.621Z,25.30
2019-06-20T23:30:15.885Z,25.23
2019-06-20T23:32:44.462Z,25.80
2019-06-20T23:35:12.966Z,24.37
2019-06-20T23:37:41.388Z,22.73
2019-06-20T23:40:11.087Z,19.27
2019-06-20T23:42:39.481Z,18.10
2019-06-20T23:45:09.458Z,17.93
2019-06-20T23:47:37.949Z,16.30
2019-06-20T23:50:07.228Z,15.00
2019-06-20T23:52:45.877Z,14.13
2019-06-20T23:55:14.319Z,14.27
2019-06-20T23:57:42.721Z,13.07
